createdAt,value
2023-01-05T00:01:33.072Z,1.00
2023-01-05T00:04:00.671Z,0.77
2023-01-05T00:06:28.320Z,0.65
2023-01-05T00:08:55.786Z,0.80
2023-01-05T00:11:45.318Z,0.60
2023-01-05T00:14:43.690Z,0.68
2023-01-05T00:17:32.052Z,1.17
2023-01-05T00:20:18.320Z,0.75
2023-01-05T00:22:51.074Z,0.60
2023-01-05T00:25:29.919Z,0.80
2023-01-05T00:27:58.749Z,1.00
2023-01-05T00:30:30.383Z,0.70
2023-01-05T00:32:58.079Z,0.70
2023-01-05T00:35:25.581Z,0.65
2023-01-05T00:37:53.123Z,0.90
2023-01-05T00:40:22.648Z,1.23
2023-01-05T00:42:50.250Z,0.80
2023-01-05T00:45:19.385Z,0.50
2023-01-05T00:47:49.318Z,0.60
2023-01-05T00:50:18.696Z,0.75
2023-01-05T00:52:47.071Z,1.13
2023-01-05T00:55:15.397Z,0.63
2023-01-05T00:57:42.929Z,0.70
2023-01-05T01:00:16.225Z,0.50
2023-01-05T01:02:43.791Z,0.70
2023-01-05T01:05:11.742Z,0.82
2023-01-05T01:07:39.311Z,0.60
2023-01-05T01:10:08.132Z,0.60
2023-01-05T01:12:35.677Z,0.85
2023-01-05T01:15:03.471Z,0.70
2023-01-05T01:17:32.868Z,0.80
2023-01-05T01:20:00.291Z,1.33
2023-01-05T01:22:27.988Z,0.60
2023-01-05T01:24:55.454Z,0.80
2023-01-05T01:27:23.014Z,0.82
2023-01-05T01:29:50.432Z,0.82
2023-01-05T01:32:18.124Z,1.05
2023-01-05T01:34:45.608Z,0.80
2023-01-05T01:37:13.598Z,0.80
2023-01-05T01:39:48.381Z,1.30
2023-01-05T01:42:17.380Z,0.80
2023-01-05T01:44:56.238Z,0.95
2023-01-05T01:47:45.772Z,1.25
2023-01-05T01:50:22.344Z,0.90
2023-01-05T01:52:52.988Z,1.10
2023-01-05T01:55:21.128Z,1.38
2023-01-05T01:57:50.660Z,0.82
2023-01-05T02:00:19.221Z,1.20
2023-01-05T02:02:49.102Z,1.23
2023-01-05T02:05:23.975Z,1.17
2023-01-05T02:07:51.510Z,1.10
2023-01-05T02:10:41.357Z,1.23
2023-01-05T02:13:18.621Z,1.40
2023-01-05T02:16:12.276Z,1.70
2023-01-05T02:19:01.738Z,1.20
2023-01-05T02:21:47.758Z,1.23
2023-01-05T02:24:24.225Z,1.30
2023-01-05T02:27:41.212Z,1.05
2023-01-05T02:30:23.981Z,1.35
2023-01-05T02:32:56.922Z,1.23
2023-01-05T02:35:40.898Z,1.07
2023-01-05T02:38:31.376Z,1.00
2023-01-05T02:41:20.070Z,1.92
2023-01-05T02:43:48.040Z,1.48
2023-01-05T02:46:15.596Z,1.60
2023-01-05T02:48:46.027Z,1.15
2023-01-05T02:51:23.865Z,1.73
2023-01-05T02:54:02.547Z,1.42
2023-01-05T02:56:51.345Z,1.60
2023-01-05T02:59:32.112Z,1.58
2023-01-05T03:02:04.973Z,1.98
2023-01-05T03:04:39.946Z,1.70
2023-01-05T03:07:13.254Z,1.00
2023-01-05T03:09:42.842Z,1.58
2023-01-05T03:12:47.877Z,1.70
2023-01-05T03:15:31.148Z,1.48
2023-01-05T03:18:07.327Z,1.88
2023-01-05T03:20:40.610Z,1.40
2023-01-05T03:23:30.951Z,1.65
2023-01-05T03:26:17.842Z,2.13
2023-01-05T03:29:09.590Z,1.90
2023-01-05T03:32:01.887Z,1.63
2023-01-05T03:35:06.819Z,1.45
2023-01-05T03:37:55.744Z,2.10
2023-01-05T03:40:31.170Z,1.88
2023-01-05T03:42:59.882Z,2.00
2023-01-05T03:45:44.670Z,1.90
2023-01-05T03:48:18.881Z,1.65
2023-01-05T03:50:47.181Z,1.77
2023-01-05T03:53:16.555Z,1.30
2023-01-05T03:55:46.507Z,1.63
2023-01-05T03:58:14.723Z,1.58
2023-01-05T04:00:46.951Z,2.10
2023-01-05T04:03:17.467Z,1.45
2023-01-05T04:05:45.169Z,1.40
2023-01-05T04:08:13.198Z,1.70
2023-01-05T04:10:40.735Z,2.28
2023-01-05T04:13:09.462Z,1.83
2023-01-05T04:15:38.689Z,2.42
2023-01-05T04:18:08.262Z,1.75
2023-01-05T04:20:35.740Z,2.00
2023-01-05T04:23:03.502Z,2.03
2023-01-05T04:25:33.245Z,1.40
2023-01-05T04:28:12.047Z,1.70
2023-01-05T04:30:39.967Z,1.98
2023-01-05T04:33:07.422Z,1.70
2023-01-05T04:35:35.412Z,1.73
2023-01-05T04:38:04.212Z,1.60
2023-01-05T04:40:33.334Z,2.05
2023-01-05T04:43:01.617Z,1.77
2023-01-05T04:45:29.745Z,2.17
2023-01-05T04:47:59.112Z,2.00
2023-01-05T04:50:27.633Z,1.95
2023-01-05T04:52:56.841Z,2.30
2023-01-05T04:55:24.417Z,1.92
2023-01-05T04:57:52.783Z,1.90
2023-01-05T05:00:21.915Z,2.10
2023-01-05T05:02:51.549Z,2.00
2023-01-05T05:05:19.538Z,2.30
2023-01-05T05:07:51.303Z,2.22
2023-01-05T05:10:19.314Z,2.33
2023-01-05T05:12:48.362Z,2.15
2023-01-05T05:15:16.251Z,1.95
2023-01-05T05:17:47.224Z,1.73
2023-01-05T05:20:16.723Z,2.65
2023-01-05T05:22:44.759Z,2.00
2023-01-05T05:25:15.990Z,2.10
2023-01-05T05:27:47.046Z,2.03
2023-01-05T05:30:14.815Z,2.90
2023-01-05T05:36:29.761Z,2.28
2023-01-05T05:38:58.446Z,1.98
2023-01-05T05:41:26.132Z,2.15
2023-01-05T05:43:53.658Z,2.15
2023-01-05T05:46:21.366Z,2.67
2023-01-05T05:48:48.870Z,2.10
2023-01-05T05:51:16.376Z,2.28
2023-01-05T05:53:43.919Z,2.15
2023-01-05T05:56:11.521Z,2.72
2023-01-05T05:58:39.123Z,2.50
2023-01-05T06:01:06.925Z,2.50
2023-01-05T06:03:34.574Z,2.10
2023-01-05T06:06:03.121Z,2.50
2023-01-05T06:08:30.917Z,2.72
2023-01-05T06:10:58.877Z,2.40
2023-01-05T06:13:26.625Z,2.00
2023-01-05T06:15:54.146Z,2.33
2023-01-05T06:18:21.626Z,2.65
2023-01-05T06:20:49.174Z,2.25
2023-01-05T06:23:16.808Z,2.20
2023-01-05T06:25:44.569Z,2.50
2023-01-05T06:28:15.625Z,2.33
2023-01-05T06:30:45.936Z,2.58
2023-01-05T06:33:13.465Z,2.25
2023-01-05T06:35:41.075Z,2.30
2023-01-05T06:38:08.601Z,2.50
2023-01-05T06:40:36.156Z,2.15
2023-01-05T06:43:03.606Z,2.53
2023-01-05T06:45:32.497Z,2.15
2023-01-05T06:48:01.200Z,2.33
2023-01-05T06:50:30.562Z,2.88
2023-01-05T06:52:58.820Z,2.58
2023-01-05T06:55:26.384Z,2.70
2023-01-05T06:58:00.277Z,2.45
2023-01-05T07:00:29.390Z,2.08
2023-01-05T07:02:56.918Z,2.50
2023-01-05T07:05:24.794Z,2.22
2023-01-05T07:07:52.503Z,2.13
2023-01-05T07:10:20.102Z,2.25
2023-01-05T07:12:47.571Z,2.15
2023-01-05T07:15:15.048Z,2.47
2023-01-05T07:17:42.485Z,2.17
2023-01-05T07:20:10.231Z,2.10
2023-01-05T07:22:37.694Z,1.80
2023-01-05T07:25:05.472Z,2.10
2023-01-05T07:27:33.027Z,2.42
2023-01-05T07:30:00.694Z,2.60
2023-01-05T07:32:28.210Z,1.95
2023-01-05T07:34:56.213Z,2.63
2023-01-05T07:37:25.313Z,2.58
2023-01-05T07:39:53.480Z,2.05
2023-01-05T07:42:21.239Z,2.60
2023-01-05T07:44:50.422Z,2.40
2023-01-05T07:47:18.324Z,2.90
2023-01-05T07:49:46.538Z,2.30
2023-01-05T07:52:14.030Z,2.30
2023-01-05T07:54:41.600Z,2.00
2023-01-05T07:57:09.170Z,2.33
2023-01-05T07:59:36.648Z,2.10
2023-01-05T08:02:04.304Z,2.33
2023-01-05T08:04:32.017Z,2.35
2023-01-05T08:06:59.905Z,2.40
2023-01-05T08:09:46.120Z,2.28
2023-01-05T08:12:13.655Z,2.42
2023-01-05T08:14:41.160Z,2.42
2023-01-05T08:17:09.322Z,2.28
2023-01-05T08:19:36.960Z,2.33
2023-01-05T08:22:04.761Z,2.40
2023-01-05T08:24:32.448Z,2.75
2023-01-05T08:27:00.076Z,2.90
2023-01-05T08:29:28.131Z,2.40
2023-01-05T08:31:56.012Z,2.42
2023-01-05T08:34:23.558Z,2.47
2023-01-05T08:36:51.070Z,2.40
2023-01-05T08:39:18.540Z,2.70
2023-01-05T08:41:45.990Z,2.40
2023-01-05T08:44:14.538Z,2.33
2023-01-05T08:46:42.112Z,2.38
2023-01-05T08:49:10.067Z,2.00
2023-01-05T08:51:38.531Z,3.00
2023-01-05T08:54:06.145Z,2.75
2023-01-05T08:56:38.574Z,2.38
2023-01-05T08:59:07.202Z,2.28
2023-01-05T09:01:34.846Z,2.97
2023-01-05T09:04:02.521Z,3.35
2023-01-05T09:06:29.979Z,2.50
2023-01-05T09:08:57.501Z,2.40
2023-01-05T09:11:26.209Z,2.38
2023-01-05T09:13:56.821Z,2.00
2023-01-05T09:19:17.958Z,2.28
2023-01-05T09:21:45.464Z,2.83
2023-01-05T09:24:13.369Z,2.92
2023-01-05T09:26:42.382Z,3.10
2023-01-05T09:29:11.305Z,2.45
2023-01-05T09:31:40.662Z,2.55
2023-01-05T09:34:08.293Z,2.80
2023-01-05T09:36:38.938Z,3.50
2023-01-05T09:39:06.710Z,2.75
2023-01-05T09:41:38.232Z,2.08
2023-01-05T09:44:37.019Z,2.20
2023-01-05T09:47:21.086Z,2.00
2023-01-05T09:49:50.492Z,2.75
2023-01-05T09:52:22.758Z,2.38
2023-01-05T09:54:50.420Z,2.53
2023-01-05T09:57:25.569Z,1.88
2023-01-05T09:59:59.318Z,2.05
2023-01-05T10:02:46.360Z,2.00
2023-01-05T10:05:15.614Z,1.83
2023-01-05T10:07:54.096Z,1.90
2023-01-05T10:10:37.590Z,1.90
2023-01-05T10:13:07.299Z,1.92
2023-01-05T10:15:46.609Z,2.25
2023-01-05T10:18:21.236Z,1.77
2023-01-05T10:21:27.284Z,1.88
2023-01-05T10:24:16.403Z,1.77
2023-01-05T10:27:25.846Z,1.85
2023-01-05T10:30:18.592Z,1.85
2023-01-05T10:32:50.548Z,1.90
2023-01-05T10:38:28.975Z,1.60
2023-01-05T10:41:15.036Z,1.40
2023-01-05T10:44:20.028Z,2.20
2023-01-05T10:46:52.738Z,2.10
2023-01-05T10:49:26.589Z,1.93
2023-01-05T10:52:00.018Z,1.92
2023-01-05T10:54:33.763Z,1.48
2023-01-05T10:57:34.650Z,2.13
2023-01-05T11:00:12.247Z,1.42
2023-01-05T11:02:48.478Z,1.85
2023-01-05T11:05:33.428Z,2.08
2023-01-05T11:08:04.340Z,2.17
2023-01-05T11:10:36.532Z,1.92
2023-01-05T11:13:16.950Z,1.67
2023-01-05T11:15:52.846Z,2.20
2023-01-05T11:18:36.850Z,1.98
2023-01-05T11:21:13.619Z,2.03
2023-01-05T11:23:51.097Z,2.17
2023-01-05T11:26:18.597Z,2.10
2023-01-05T11:28:58.219Z,2.13
2023-01-05T11:31:31.968Z,2.15
2023-01-05T11:36:27.904Z,1.98
2023-01-05T11:38:58.173Z,1.92
2023-01-05T11:41:25.963Z,2.10
2023-01-05T11:43:54.809Z,1.83
2023-01-05T11:46:22.925Z,1.85
2023-01-05T11:48:54.503Z,2.03
2023-01-05T11:51:40.863Z,1.90
2023-01-05T11:54:33.082Z,1.85
2023-01-05T11:57:22.509Z,1.83
2023-01-05T11:59:55.880Z,1.80
2023-01-05T12:02:39.624Z,1.50
2023-01-05T12:05:16.400Z,1.65
2023-01-05T12:07:53.564Z,1.80
2023-01-05T12:10:27.312Z,1.80
2023-01-05T12:13:24.956Z,2.53
2023-01-05T12:16:02.479Z,1.80
2023-01-05T12:18:54.851Z,1.55
2023-01-05T12:21:27.791Z,1.65
2023-01-05T12:24:07.191Z,1.50
2023-01-05T12:27:02.731Z,1.75
2023-01-05T12:35:45.325Z,1.58
2023-01-05T12:38:25.490Z,1.55
2023-01-05T12:40:55.815Z,1.40
2023-01-05T12:43:54.902Z,1.17
2023-01-05T12:46:56.052Z,1.20
2023-01-05T12:49:44.443Z,1.20
2023-01-05T12:52:22.969Z,1.35
2023-01-05T12:55:05.577Z,1.02
2023-01-05T12:57:39.253Z,1.00
2023-01-05T13:00:13.052Z,1.33
2023-01-05T13:02:56.754Z,1.83
2023-01-05T13:05:32.848Z,1.70
2023-01-05T13:08:17.672Z,1.38
2023-01-05T13:10:57.765Z,1.77
2023-01-05T13:13:48.591Z,1.77
2023-01-05T13:16:26.630Z,1.60
2023-01-05T13:19:02.355Z,1.10
2023-01-05T13:21:31.584Z,1.80
2023-01-05T13:24:22.911Z,1.85
2023-01-05T13:26:51.084Z,1.30
2023-01-05T13:29:44.206Z,1.70
2023-01-05T13:32:40.875Z,1.50
2023-01-05T13:35:40.598Z,1.45
2023-01-05T13:38:43.252Z,1.70
2023-01-05T13:41:13.262Z,1.70
2023-01-05T13:44:02.361Z,1.60
2023-01-05T13:46:54.791Z,1.27
2023-01-05T13:50:16.887Z,1.38
2023-01-05T13:53:20.452Z,1.40
2023-01-05T13:56:14.099Z,1.77
2023-01-05T13:58:44.084Z,1.83
2023-01-05T14:01:33.204Z,2.13
2023-01-05T14:04:01.667Z,1.60
2023-01-05T14:06:36.089Z,2.03
2023-01-05T14:09:14.729Z,1.27
2023-01-05T14:12:08.213Z,2.08
2023-01-05T14:15:13.017Z,1.27
2023-01-05T14:20:35.146Z,1.67
2023-01-05T14:23:25.372Z,1.60
2023-01-05T14:25:56.510Z,1.58
2023-01-05T14:28:42.436Z,2.03
2023-01-05T14:31:16.396Z,1.73
2023-01-05T14:33:54.193Z,1.60
2023-01-05T14:36:47.421Z,1.52
2023-01-05T14:39:17.962Z,2.03
2023-01-05T14:42:04.039Z,1.65
2023-01-05T14:44:45.758Z,1.98
2023-01-05T14:47:13.689Z,1.85
2023-01-05T14:50:05.029Z,1.60
2023-01-05T14:52:59.119Z,1.65
2023-01-05T14:55:39.561Z,1.90
2023-01-05T14:58:36.692Z,1.80
2023-01-05T15:01:16.766Z,2.00
2023-01-05T15:04:03.179Z,2.20
2023-01-05T15:06:48.808Z,2.35
2023-01-05T15:10:07.188Z,2.35
2023-01-05T15:12:55.887Z,2.08
2023-01-05T15:15:29.354Z,2.90
2023-01-05T15:18:12.499Z,2.95
2023-01-05T15:21:03.579Z,3.05
2023-01-05T15:23:51.064Z,3.15
2023-01-05T15:26:57.564Z,3.72
2023-01-05T15:29:46.610Z,2.97
2023-01-05T15:32:27.122Z,1.60
2023-01-05T15:35:09.726Z,1.02
2023-01-05T15:37:39.848Z,1.35
2023-01-05T15:40:27.460Z,1.27
2023-01-05T15:42:58.505Z,1.10
2023-01-05T15:45:29.276Z,1.10
2023-01-05T15:48:01.055Z,1.10
2023-01-05T15:50:50.151Z,0.82
2023-01-05T15:53:29.669Z,1.02
2023-01-05T15:55:58.304Z,0.70
2023-01-05T15:58:28.008Z,0.77
2023-01-05T16:01:04.889Z,0.80
2023-01-05T16:03:35.982Z,0.85
2023-01-05T16:06:25.613Z,0.80
2023-01-05T16:08:56.416Z,0.90
2023-01-05T16:11:29.328Z,1.10
2023-01-05T16:14:03.205Z,0.82
2023-01-05T16:19:34.779Z,1.00
2023-01-05T16:22:24.344Z,1.23
2023-01-05T16:25:10.297Z,1.10
2023-01-05T16:27:41.101Z,1.05
2023-01-05T16:30:32.108Z,1.60
2023-01-05T16:33:19.718Z,2.15
2023-01-05T16:35:53.107Z,1.90
2023-01-05T16:38:20.654Z,2.58
2023-01-05T16:40:50.883Z,2.30
2023-01-05T16:44:03.412Z,2.40
2023-01-05T16:46:40.318Z,2.25
2023-01-05T16:49:33.770Z,2.17
2023-01-05T16:52:02.811Z,2.60
2023-01-05T16:54:38.382Z,2.58
2023-01-05T16:57:42.189Z,2.70
2023-01-05T17:00:42.189Z,3.27
2023-01-05T17:03:31.461Z,2.60
2023-01-05T17:06:01.241Z,2.42
2023-01-05T17:08:31.966Z,2.47
2023-01-05T17:11:01.952Z,2.30
2023-01-05T17:13:37.911Z,2.45
2023-01-05T17:16:06.044Z,2.92
2023-01-05T17:18:33.593Z,2.30
2023-01-05T17:21:03.376Z,2.50
2023-01-05T17:23:42.408Z,2.70
2023-01-05T17:26:12.131Z,2.85
2023-01-05T17:28:42.087Z,2.95
2023-01-05T17:31:10.785Z,2.90
2023-01-05T17:33:38.429Z,2.80
2023-01-05T17:36:06.516Z,2.60
2023-01-05T17:38:34.118Z,3.00
2023-01-05T17:41:01.807Z,2.80
2023-01-05T17:43:29.261Z,2.65
2023-01-05T17:45:57.116Z,2.75
2023-01-05T17:48:24.662Z,2.38
2023-01-05T17:50:54.174Z,2.20
2023-01-05T17:53:22.211Z,2.28
2023-01-05T17:55:49.730Z,2.67
2023-01-05T17:58:17.198Z,2.35
2023-01-05T18:00:48.365Z,2.13
2023-01-05T18:03:22.024Z,1.85
2023-01-05T18:08:20.395Z,1.60
2023-01-05T18:10:48.274Z,1.60
2023-01-05T18:13:18.283Z,1.65
2023-01-05T18:15:50.784Z,1.87
2023-01-05T18:18:18.766Z,1.58
2023-01-05T18:20:46.291Z,1.60
2023-01-05T18:23:13.806Z,2.13
2023-01-05T18:25:41.391Z,1.98
2023-01-05T18:28:08.903Z,1.77
2023-01-05T18:30:36.735Z,2.17
2023-01-05T18:33:04.332Z,1.90
2023-01-05T18:35:31.907Z,1.80
2023-01-05T18:38:01.234Z,1.70
2023-01-05T18:40:29.253Z,1.83
2023-01-05T18:42:56.982Z,1.85
2023-01-05T18:45:38.221Z,1.45
2023-01-05T18:48:06.889Z,1.30
2023-01-05T18:50:34.349Z,1.33
2023-01-05T18:53:01.882Z,1.45
2023-01-05T18:55:29.488Z,1.33
2023-01-05T18:57:57.019Z,1.42
2023-01-05T19:00:24.396Z,1.40
2023-01-05T19:02:51.965Z,1.33
2023-01-05T19:05:19.472Z,0.95
2023-01-05T19:07:51.263Z,1.40
2023-01-05T19:10:19.106Z,0.95
2023-01-05T19:12:46.592Z,1.20
2023-01-05T19:15:14.202Z,1.08
2023-01-05T19:17:41.938Z,1.00
2023-01-05T19:20:09.877Z,0.93
2023-01-05T19:22:37.392Z,1.08
2023-01-05T19:25:06.202Z,1.08
2023-01-05T19:27:34.876Z,1.27
2023-01-05T19:30:02.413Z,1.30
2023-01-05T19:32:31.972Z,0.80
2023-01-05T19:34:59.528Z,1.08
2023-01-05T19:37:27.000Z,1.23
2023-01-05T19:39:54.911Z,0.80
2023-01-05T19:42:22.390Z,0.90
2023-01-05T19:44:50.538Z,0.85
2023-01-05T19:47:18.066Z,0.90
2023-01-05T19:49:45.672Z,1.17
2023-01-05T19:52:13.992Z,0.93
2023-01-05T19:54:42.416Z,1.10
2023-01-05T19:57:09.995Z,1.40
2023-01-05T19:59:37.583Z,0.98
2023-01-05T20:02:06.421Z,1.00
2023-01-05T20:04:34.204Z,1.27
2023-01-05T20:07:03.929Z,1.10
2023-01-05T20:09:32.255Z,1.42
2023-01-05T20:12:13.178Z,1.17
2023-01-05T20:14:42.694Z,1.20
2023-01-05T20:17:11.721Z,1.40
2023-01-05T20:19:39.798Z,1.83
2023-01-05T20:22:08.904Z,1.42
2023-01-05T20:24:37.427Z,1.80
2023-01-05T20:27:08.874Z,1.40
2023-01-05T20:29:37.932Z,1.23
2023-01-05T20:32:09.092Z,1.40
2023-01-05T20:34:38.783Z,1.80
2023-01-05T20:37:08.305Z,1.25
2023-01-05T20:39:37.801Z,1.52
2023-01-05T20:42:05.771Z,1.63
2023-01-05T20:44:36.472Z,1.40
2023-01-05T20:47:06.743Z,1.30
2023-01-05T20:49:36.015Z,1.50
2023-01-05T20:52:04.023Z,1.40
2023-01-05T20:54:31.835Z,1.38
2023-01-05T20:56:59.391Z,1.27
2023-01-05T20:59:32.098Z,1.50
2023-01-05T21:02:00.857Z,1.20
2023-01-05T21:04:29.975Z,1.60
2023-01-05T21:07:04.144Z,1.40
2023-01-05T21:09:31.652Z,1.30
2023-01-05T21:11:59.253Z,1.30
2023-01-05T21:14:26.828Z,1.20
2023-01-05T21:16:55.617Z,1.25
2023-01-05T21:19:24.232Z,1.00
2023-01-05T21:21:55.843Z,1.00
2023-01-05T21:24:24.276Z,1.30
2023-01-05T21:26:52.047Z,1.55
2023-01-05T21:29:23.052Z,1.60
2023-01-05T21:31:51.529Z,1.40
2023-01-05T21:34:19.211Z,1.25
2023-01-05T21:36:48.513Z,1.70
2023-01-05T21:39:20.040Z,1.67
2023-01-05T21:42:07.401Z,1.48
2023-01-05T21:44:35.352Z,1.50
2023-01-05T21:47:05.651Z,1.63
2023-01-05T21:49:35.177Z,2.20
2023-01-05T21:52:21.544Z,1.65
2023-01-05T21:55:08.047Z,2.30
2023-01-05T21:57:35.676Z,1.75
2023-01-05T22:00:04.129Z,2.50
2023-01-05T22:02:32.400Z,2.25
2023-01-05T22:04:59.889Z,2.10
2023-01-05T22:07:27.523Z,2.28
2023-01-05T22:09:55.108Z,1.70
2023-01-05T22:12:22.632Z,1.90
2023-01-05T22:14:50.450Z,1.90
2023-01-05T22:17:18.037Z,2.10
2023-01-05T22:19:45.561Z,2.17
2023-01-05T22:22:13.156Z,1.98
2023-01-05T22:24:40.589Z,2.00
2023-01-05T22:27:08.527Z,2.35
2023-01-05T22:29:35.981Z,2.22
2023-01-05T22:32:03.739Z,2.33
2023-01-05T22:34:31.646Z,2.35
2023-01-05T22:36:59.239Z,2.17
2023-01-05T22:39:26.726Z,2.33
2023-01-05T22:41:54.253Z,2.40
2023-01-05T22:44:21.749Z,2.15
2023-01-05T22:46:49.251Z,2.65
2023-01-05T22:49:16.812Z,2.38
2023-01-05T22:51:46.438Z,2.47
2023-01-05T22:54:14.468Z,1.95
2023-01-05T22:56:42.006Z,2.85
2023-01-05T22:59:09.543Z,2.05
2023-01-05T23:01:39.851Z,2.17
2023-01-05T23:04:07.892Z,2.33
2023-01-05T23:06:35.639Z,1.98
2023-01-05T23:09:05.120Z,2.20
2023-01-05T23:11:36.762Z,2.00
2023-01-05T23:14:06.912Z,2.47
2023-01-05T23:16:35.548Z,1.65
2023-01-05T23:19:05.908Z,1.48
2023-01-05T23:21:34.720Z,2.05
2023-01-05T23:24:02.676Z,2.22
2023-01-05T23:26:30.577Z,2.03
2023-01-05T23:28:58.535Z,2.28
2023-01-05T23:31:26.475Z,1.80
2023-01-05T23:33:53.882Z,1.40
2023-01-05T23:36:23.729Z,1.60
2023-01-05T23:38:52.075Z,1.90
2023-01-05T23:41:19.695Z,1.40
2023-01-05T23:43:47.556Z,1.42
2023-01-05T23:46:20.179Z,1.77
2023-01-05T23:48:49.270Z,1.90
2023-01-05T23:51:18.367Z,1.73
2023-01-05T23:53:48.739Z,1.90
2023-01-05T23:56:19.743Z,2.00
2023-01-05T23:58:48.312Z,2.00
